createdAt,value
2018-01-24T00:01:27.521Z,91.40
2018-01-24T00:03:54.972Z,91.20
2018-01-24T00:06:22.428Z,91.30
2018-01-24T00:08:49.876Z,91.40
2018-01-24T00:11:17.327Z,91.50
2018-01-24T00:13:44.772Z,91.60
2018-01-24T00:16:12.216Z,91.50
2018-01-24T00:18:39.668Z,91.40
2018-01-24T00:21:07.120Z,91.20
2018-01-24T00:23:34.566Z,91.40
2018-01-24T00:26:02.778Z,91.50
2018-01-24T00:28:30.212Z,91.50
2018-01-24T00:30:57.671Z,91.20
2018-01-24T00:33:25.121Z,91.70
2018-01-24T00:35:52.563Z,91.20
2018-01-24T00:38:20.016Z,91.10
2018-01-24T00:40:48.227Z,90.60
2018-01-24T00:43:15.668Z,90.60
2018-01-24T00:45:43.120Z,90.70
2018-01-24T00:48:10.575Z,90.70
2018-01-24T00:50:38.021Z,90.70
2018-01-24T00:53:05.465Z,90.70
2018-01-24T00:55:33.668Z,90.70
2018-01-24T00:58:01.119Z,90.70
2018-01-24T01:00:28.568Z,90.80
2018-01-24T01:02:56.035Z,90.80
2018-01-24T01:05:23.517Z,91.00
2018-01-24T01:07:50.961Z,91.00
2018-01-24T01:10:18.412Z,90.90
2018-01-24T01:12:45.859Z,90.90
2018-01-24T01:15:13.315Z,90.90
2018-01-24T01:17:40.760Z,91.10
2018-01-24T01:20:08.204Z,90.90
2018-01-24T01:22:36.419Z,91.00
2018-01-24T01:25:03.868Z,91.00
2018-01-24T01:27:31.311Z,90.70
2018-01-24T01:29:58.760Z,90.80
2018-01-24T01:32:26.210Z,90.70
2018-01-24T01:34:54.420Z,91.00
2018-01-24T01:37:21.859Z,91.00
2018-01-24T01:39:49.312Z,90.80
2018-01-24T01:42:16.754Z,90.80
2018-01-24T01:44:44.195Z,90.70
2018-01-24T01:47:12.408Z,90.70
2018-01-24T01:49:39.865Z,90.70
2018-01-24T01:52:07.313Z,90.70
2018-01-24T01:54:34.765Z,90.80
2018-01-24T01:57:02.207Z,90.90
2018-01-24T01:59:29.663Z,90.80
2018-01-24T02:01:57.102Z,90.80
2018-01-24T02:04:25.315Z,90.60
2018-01-24T02:06:52.752Z,90.70
2018-01-24T02:09:20.244Z,90.70
2018-01-24T02:11:47.656Z,90.90
2018-01-24T02:14:15.859Z,91.10
2018-01-24T02:16:43.308Z,91.10
2018-01-24T02:19:10.748Z,91.20
2018-01-24T02:21:38.198Z,91.40
2018-01-24T02:24:06.407Z,91.80
2018-01-24T02:26:33.859Z,91.80
2018-01-24T02:29:01.316Z,92.10
2018-01-24T02:31:28.759Z,92.30
2018-01-24T02:33:56.220Z,92.50
2018-01-24T02:36:23.670Z,92.60
2018-01-24T02:39:02.846Z,92.80
2018-01-24T02:41:30.292Z,93.00
2018-01-24T02:43:57.751Z,93.20
2018-01-24T02:46:25.204Z,93.20
2018-01-24T02:48:52.652Z,93.40
2018-01-24T02:51:20.098Z,93.50
2018-01-24T02:53:47.547Z,93.80
2018-01-24T02:56:15.010Z,93.80
2018-01-24T02:58:42.461Z,93.90
2018-01-24T03:01:09.918Z,94.00
2018-01-24T03:03:37.367Z,94.10
2018-01-24T03:06:04.816Z,94.30
2018-01-24T03:08:32.268Z,94.30
2018-01-24T03:10:59.711Z,94.40
2018-01-24T03:13:27.927Z,94.60
2018-01-24T03:15:55.380Z,94.50
2018-01-24T03:18:22.829Z,94.60
2018-01-24T03:20:50.277Z,94.60
2018-01-24T03:23:17.725Z,94.70
2018-01-24T03:25:45.172Z,94.70
2018-01-24T03:28:12.620Z,94.70
2018-01-24T03:30:40.837Z,94.80
2018-01-24T03:33:08.279Z,94.80
2018-01-24T03:35:35.737Z,94.80
2018-01-24T03:38:03.179Z,94.90
2018-01-24T03:40:30.632Z,94.90
2018-01-24T03:42:58.084Z,94.90
2018-01-24T03:45:26.292Z,95.00
2018-01-24T03:47:53.884Z,95.00
2018-01-24T03:50:21.324Z,95.10
2018-01-24T03:52:48.774Z,95.10
2018-01-24T03:55:16.224Z,95.10
2018-01-24T03:57:44.436Z,95.20
2018-01-24T04:00:11.891Z,95.20
2018-01-24T04:02:39.332Z,95.50
2018-01-24T04:05:06.792Z,95.20
2018-01-24T04:07:34.233Z,95.10
2018-01-24T04:10:01.688Z,95.10
2018-01-24T04:12:29.136Z,95.10
2018-01-24T04:14:56.588Z,95.10
2018-01-24T04:17:24.037Z,95.10
2018-01-24T04:19:51.492Z,95.20
2018-01-24T04:22:18.940Z,95.20
2018-01-24T04:24:46.400Z,95.20
2018-01-24T04:27:13.863Z,95.20
2018-01-24T04:29:41.320Z,95.30
2018-01-24T04:32:08.764Z,95.30
2018-01-24T04:34:36.228Z,95.30
2018-01-24T04:37:04.707Z,95.30
2018-01-24T04:39:32.164Z,95.40
2018-01-24T04:41:59.620Z,95.30
2018-01-24T04:44:27.072Z,95.30
2018-01-24T04:46:54.521Z,95.30
2018-01-24T04:49:21.963Z,95.40
2018-01-24T04:51:49.418Z,95.60
2018-01-24T04:54:17.628Z,95.50
2018-01-24T04:56:45.083Z,95.50
2018-01-24T04:59:12.579Z,95.50
2018-01-24T05:01:40.024Z,95.50
2018-01-24T05:04:07.486Z,95.50
2018-01-24T05:06:34.932Z,95.50
2018-01-24T05:09:02.392Z,95.40
2018-01-24T05:11:29.844Z,95.40
2018-01-24T05:13:57.324Z,95.40
2018-01-24T05:16:25.543Z,95.40
2018-01-24T05:18:52.989Z,95.40
2018-01-24T05:21:20.436Z,95.30
2018-01-24T05:23:47.892Z,95.30
2018-01-24T05:26:15.341Z,95.30
2018-01-24T05:28:42.814Z,95.40
2018-01-24T05:31:10.259Z,95.40
2018-01-24T05:33:37.720Z,95.50
2018-01-24T05:36:05.204Z,95.50
2018-01-24T05:38:32.648Z,95.60
2018-01-24T05:41:00.107Z,95.60
2018-01-24T05:43:27.555Z,95.70
2018-01-24T05:45:55.015Z,95.60
2018-01-24T05:48:22.468Z,95.60
2018-01-24T05:50:49.927Z,95.50
2018-01-24T05:53:17.376Z,95.50
2018-01-24T05:55:44.841Z,95.50
2018-01-24T05:58:12.296Z,95.40
2018-01-24T06:00:39.773Z,95.40
2018-01-24T06:03:07.225Z,95.40
2018-01-24T06:05:34.685Z,95.30
2018-01-24T06:08:02.135Z,95.30
2018-01-24T06:10:30.504Z,95.30
2018-01-24T06:12:58.000Z,95.30
2018-01-24T06:15:25.468Z,95.20
2018-01-24T06:18:05.419Z,95.20
2018-01-24T06:20:32.858Z,95.20
2018-01-24T06:23:00.312Z,95.00
2018-01-24T06:25:27.764Z,95.00
2018-01-24T06:27:55.218Z,95.10
2018-01-24T06:30:22.668Z,95.20
2018-01-24T06:32:50.124Z,95.20
2018-01-24T06:35:17.584Z,95.20
2018-01-24T06:37:45.051Z,95.20
2018-01-24T06:40:12.496Z,95.20
2018-01-24T06:42:39.939Z,95.00
2018-01-24T06:45:07.389Z,94.90
2018-01-24T06:47:34.835Z,94.80
2018-01-24T06:50:02.296Z,94.60
2018-01-24T06:52:29.741Z,94.70
2018-01-24T06:54:57.191Z,94.80
2018-01-24T06:57:24.639Z,94.80
2018-01-24T06:59:52.093Z,94.80
2018-01-24T07:02:20.316Z,94.80
2018-01-24T07:04:47.763Z,94.80
2018-01-24T07:07:15.228Z,94.80
2018-01-24T07:09:42.680Z,94.80
2018-01-24T07:12:22.180Z,94.80
2018-01-24T07:14:49.628Z,94.80
2018-01-24T07:17:17.847Z,95.20
2018-01-24T07:19:45.315Z,94.90
2018-01-24T07:22:12.764Z,94.80
2018-01-24T07:24:40.229Z,94.80
2018-01-24T07:27:07.676Z,94.80
2018-01-24T07:29:35.126Z,94.80
2018-01-24T07:32:02.768Z,94.80
2018-01-24T07:34:30.216Z,94.80
2018-01-24T07:36:57.672Z,94.80
2018-01-24T07:39:25.116Z,95.00
2018-01-24T07:41:53.336Z,95.10
2018-01-24T07:44:20.788Z,95.10
2018-01-24T07:46:48.244Z,95.10
2018-01-24T07:49:15.688Z,95.10
2018-01-24T07:51:43.161Z,95.10
2018-01-24T07:54:10.612Z,95.00
2018-01-24T07:56:38.844Z,95.00
2018-01-24T07:59:07.060Z,95.00
2018-01-24T08:01:34.516Z,94.90
2018-01-24T08:04:01.974Z,95.00
2018-01-24T08:06:29.428Z,94.90
2018-01-24T08:08:56.895Z,94.90
2018-01-24T08:11:24.345Z,94.90
2018-01-24T08:13:51.804Z,94.90
2018-01-24T08:16:19.248Z,94.90
2018-01-24T08:18:46.703Z,94.80
2018-01-24T08:21:14.151Z,94.70
2018-01-24T08:23:41.617Z,94.70
2018-01-24T08:26:09.082Z,94.70
2018-01-24T08:28:36.547Z,94.70
2018-01-24T08:31:04.004Z,94.60
2018-01-24T08:33:31.467Z,94.70
2018-01-24T08:35:58.917Z,94.70
2018-01-24T08:38:26.369Z,94.60
2018-01-24T08:40:53.824Z,94.20
2018-01-24T08:43:21.281Z,94.00
2018-01-24T08:45:48.736Z,93.90
2018-01-24T08:48:16.180Z,93.60
2018-01-24T08:50:43.637Z,93.50
2018-01-24T08:53:11.359Z,93.40
2018-01-24T08:55:39.576Z,92.70
2018-01-24T08:58:07.020Z,92.70
2018-01-24T09:00:52.065Z,92.70
2018-01-24T09:03:37.901Z,92.50
2018-01-24T09:06:23.035Z,92.50
2018-01-24T09:09:12.576Z,92.60
2018-01-24T09:11:58.617Z,92.60
2018-01-24T09:14:43.752Z,92.60
2018-01-24T09:17:29.684Z,92.50
2018-01-24T09:20:14.892Z,92.50
2018-01-24T09:23:00.700Z,92.50
2018-01-24T09:25:28.925Z,92.30
2018-01-24T09:27:56.367Z,92.20
2018-01-24T09:30:23.816Z,91.80
2018-01-24T09:32:51.259Z,91.60
2018-01-24T09:35:18.708Z,91.60
2018-01-24T09:37:46.155Z,91.70
2018-01-24T09:40:14.355Z,91.70
2018-01-24T09:42:41.804Z,91.70
2018-01-24T09:45:09.248Z,91.60
2018-01-24T09:47:37.446Z,91.30
2018-01-24T09:50:04.899Z,91.30
2018-01-24T09:52:32.361Z,90.80
2018-01-24T09:54:59.807Z,90.40
2018-01-24T09:57:27.268Z,90.10
2018-01-24T09:59:54.707Z,90.20
2018-01-24T10:02:22.153Z,89.90
2018-01-24T10:04:50.368Z,88.50
2018-01-24T10:07:17.816Z,89.40
2018-01-24T10:09:45.264Z,90.20
2018-01-24T10:12:12.713Z,90.70
2018-01-24T10:14:40.143Z,90.70
2018-01-24T10:17:08.380Z,90.80
2018-01-24T10:19:35.835Z,90.80
2018-01-24T10:22:03.347Z,91.10
2018-01-24T10:24:30.787Z,91.20
2018-01-24T10:26:59.005Z,91.30
2018-01-24T10:29:26.455Z,91.20
2018-01-24T10:31:53.933Z,91.50
2018-01-24T10:34:21.371Z,91.30
2018-01-24T10:36:48.821Z,91.30
2018-01-24T10:39:16.267Z,91.30
2018-01-24T10:41:43.704Z,91.40
2018-01-24T10:44:11.915Z,91.30
2018-01-24T10:46:39.360Z,91.30
2018-01-24T10:49:06.820Z,91.10
2018-01-24T10:51:34.268Z,90.80
2018-01-24T10:54:01.728Z,91.00
2018-01-24T10:56:29.172Z,90.80
2018-01-24T10:58:56.620Z,90.40
2018-01-24T11:01:24.835Z,88.80
2018-01-24T11:03:52.280Z,88.80
2018-01-24T11:06:19.732Z,88.00
2018-01-24T11:08:47.193Z,86.70
2018-01-24T11:11:14.638Z,87.30
2018-01-24T11:13:42.080Z,86.40
2018-01-24T11:16:09.544Z,84.80
2018-01-24T11:18:36.996Z,84.80
2018-01-24T11:21:04.455Z,83.90
2018-01-24T11:23:31.900Z,83.40
2018-01-24T11:25:59.359Z,83.30
2018-01-24T11:28:26.810Z,83.40
2018-01-24T11:30:55.037Z,81.00
2018-01-24T11:33:22.483Z,80.90
2018-01-24T11:35:49.928Z,81.50
2018-01-24T11:38:17.375Z,77.50
2018-01-24T11:40:44.828Z,75.90
2018-01-24T11:43:12.284Z,74.20
2018-01-24T11:45:39.728Z,71.40
2018-01-24T11:48:07.177Z,71.70
2018-01-24T11:50:35.400Z,67.70
2018-01-24T11:53:02.861Z,67.60
2018-01-24T11:55:30.308Z,66.90
2018-01-24T11:57:57.760Z,68.20
2018-01-24T12:00:25.211Z,66.30
2018-01-24T12:02:52.668Z,67.50
2018-01-24T12:05:20.116Z,68.80
2018-01-24T12:07:47.575Z,65.50
2018-01-24T12:10:15.025Z,67.30
2018-01-24T12:12:42.476Z,68.30
2018-01-24T12:15:09.924Z,67.40
2018-01-24T12:17:37.377Z,68.60
2018-01-24T12:20:05.155Z,66.90
2018-01-24T12:22:32.604Z,69.50
2018-01-24T12:25:00.056Z,69.80
2018-01-24T12:27:27.508Z,70.60
2018-01-24T12:29:54.952Z,71.60
2018-01-24T12:32:23.170Z,73.00
2018-01-24T12:34:50.613Z,72.90
2018-01-24T12:37:18.065Z,73.60
2018-01-24T12:39:45.516Z,74.50
2018-01-24T12:42:12.960Z,74.50
2018-01-24T12:44:40.416Z,75.70
2018-01-24T12:47:07.864Z,75.50
2018-01-24T12:49:36.084Z,76.80
2018-01-24T12:52:03.585Z,76.70
2018-01-24T12:54:30.991Z,76.50
2018-01-24T12:56:58.439Z,76.60
2018-01-24T12:59:25.886Z,77.70
2018-01-24T13:01:53.337Z,76.30
2018-01-24T13:04:20.787Z,75.50
2018-01-24T13:06:48.244Z,74.10
2018-01-24T13:09:15.693Z,73.90
2018-01-24T13:11:43.923Z,74.70
2018-01-24T13:14:11.384Z,74.60
2018-01-24T13:16:38.836Z,74.70
2018-01-24T13:19:06.295Z,74.70
2018-01-24T13:21:33.744Z,74.90
2018-01-24T13:24:01.197Z,75.90
2018-01-24T13:26:28.645Z,76.60
2018-01-24T13:28:56.100Z,76.60
2018-01-24T13:31:23.558Z,77.40
2018-01-24T13:33:51.004Z,77.00
2018-01-24T13:36:18.460Z,77.00
2018-01-24T13:38:45.907Z,77.40
2018-01-24T13:41:13.356Z,78.40
2018-01-24T13:43:40.807Z,77.80
2018-01-24T13:46:08.253Z,78.00
2018-01-24T13:48:36.471Z,77.80
2018-01-24T13:51:03.928Z,77.80
2018-01-24T13:53:31.385Z,77.60
2018-01-24T13:55:58.844Z,77.00
2018-01-24T13:58:26.292Z,76.80
2018-01-24T14:00:53.747Z,76.80
2018-01-24T14:03:21.206Z,75.60
2018-01-24T14:05:48.652Z,75.40
2018-01-24T14:08:16.097Z,75.00
2018-01-24T14:10:43.553Z,74.80
2018-01-24T14:13:11.000Z,74.80
2018-01-24T14:15:38.443Z,75.10
2018-01-24T14:18:06.657Z,75.40
2018-01-24T14:20:34.108Z,75.30
2018-01-24T14:23:01.568Z,75.50
2018-01-24T14:25:29.216Z,75.40
2018-01-24T14:27:56.688Z,76.40
2018-01-24T14:30:24.157Z,76.30
2018-01-24T14:32:51.620Z,77.20
2018-01-24T14:35:19.208Z,76.90
2018-01-24T14:37:46.664Z,76.70
2018-01-24T14:40:14.111Z,77.30
2018-01-24T14:42:41.551Z,77.50
2018-01-24T14:45:10.509Z,77.60
2018-01-24T14:47:37.967Z,77.00
2018-01-24T14:50:05.425Z,77.60
2018-01-24T14:52:32.876Z,77.70
2018-01-24T14:55:00.323Z,77.50
2018-01-24T14:57:27.769Z,77.80
2018-01-24T14:59:55.237Z,77.40
2018-01-24T15:02:22.744Z,77.40
2018-01-24T15:04:50.136Z,77.50
2018-01-24T15:07:17.583Z,77.50
2018-01-24T15:09:45.796Z,80.50
2018-01-24T15:12:13.269Z,80.40
2018-01-24T15:14:40.716Z,81.30
2018-01-24T15:17:08.184Z,81.60
2018-01-24T15:19:35.640Z,81.50
2018-01-24T15:22:03.096Z,81.80
2018-01-24T15:24:31.325Z,82.30
2018-01-24T15:26:58.780Z,82.30
2018-01-24T15:29:26.248Z,82.80
2018-01-24T15:31:53.721Z,83.10
2018-01-24T15:34:21.179Z,83.30
2018-01-24T15:36:49.415Z,83.80
2018-01-24T15:45:28.338Z,84.30
2018-01-24T15:47:56.591Z,86.00
2018-01-24T15:50:24.901Z,85.80
2018-01-24T15:52:53.119Z,85.60
2018-01-24T15:55:21.366Z,85.30
2018-01-24T15:57:48.835Z,85.30
2018-01-24T16:00:16.301Z,85.30
2018-01-24T16:02:43.845Z,85.40
2018-01-24T16:05:11.333Z,85.40
2018-01-24T16:07:38.795Z,85.40
2018-01-24T16:10:07.018Z,85.20
2018-01-24T16:12:34.995Z,85.20
2018-01-24T16:15:02.490Z,85.80
2018-01-24T16:17:30.005Z,85.30
2018-01-24T16:19:57.511Z,85.60
2018-01-24T16:22:24.951Z,85.90
2018-01-24T16:24:52.419Z,86.10
2018-01-24T16:27:19.882Z,86.30
2018-01-24T16:29:47.454Z,86.40
2018-01-24T16:32:15.698Z,87.20
2018-01-24T16:34:43.146Z,87.00
2018-01-24T16:37:11.373Z,87.40
2018-01-24T16:39:39.600Z,87.70
2018-01-24T16:42:07.081Z,87.70
2018-01-24T16:44:34.534Z,88.20
2018-01-24T16:47:01.983Z,88.40
2018-01-24T16:49:30.239Z,88.30
2018-01-24T16:51:57.717Z,88.70
2018-01-24T16:54:25.169Z,88.60
2018-01-24T16:56:53.410Z,89.00
2018-01-24T16:59:20.862Z,88.90
2018-01-24T17:01:49.086Z,90.00
2018-01-24T17:04:17.254Z,89.40
2018-01-24T17:06:44.935Z,89.60
2018-01-24T17:09:12.470Z,90.00
2018-01-24T17:11:39.989Z,90.10
2018-01-24T17:14:08.224Z,90.30
2018-01-24T17:16:35.702Z,90.30
2018-01-24T17:19:03.155Z,90.30
2018-01-24T17:21:31.407Z,90.20
2018-01-24T17:23:58.881Z,90.20
2018-01-24T17:26:26.362Z,90.10
2018-01-24T17:28:53.842Z,90.00
2018-01-24T17:31:21.326Z,89.80
2018-01-24T17:33:48.777Z,89.70
2018-01-24T17:36:16.282Z,89.70
2018-01-24T17:38:43.761Z,90.00
2018-01-24T17:41:11.248Z,90.00
2018-01-24T17:43:38.741Z,90.10
2018-01-24T17:46:06.310Z,90.10
2018-01-24T17:48:33.778Z,90.10
2018-01-24T17:51:01.234Z,90.20
2018-01-24T17:53:29.453Z,90.30
2018-01-24T17:55:56.957Z,90.30
2018-01-24T17:58:24.413Z,90.40
2018-01-24T18:00:51.878Z,90.50
2018-01-24T18:03:19.354Z,90.60
2018-01-24T18:05:47.664Z,90.80
2018-01-24T18:08:15.126Z,90.80
2018-01-24T18:10:42.639Z,90.60
2018-01-24T18:13:10.103Z,90.70
2018-01-24T18:15:38.411Z,91.30
2018-01-24T18:18:06.685Z,91.40
2018-01-24T18:20:34.189Z,91.40
2018-01-24T18:23:02.492Z,91.80
2018-01-24T18:25:30.762Z,91.80
2018-01-24T18:27:58.388Z,91.70
2018-01-24T18:30:26.615Z,92.30
2018-01-24T18:32:54.149Z,92.30
2018-01-24T18:35:22.469Z,92.70
2018-01-24T18:37:50.751Z,92.70
2018-01-24T18:40:19.014Z,92.70
2018-01-24T18:42:46.536Z,92.70
2018-01-24T18:45:14.941Z,92.70
2018-01-24T18:47:43.223Z,92.70
2018-01-24T18:50:10.690Z,92.70
2018-01-24T18:52:38.154Z,92.70
2018-01-24T18:55:05.608Z,92.80
2018-01-24T18:57:33.225Z,92.80
2018-01-24T19:00:00.677Z,92.80
2018-01-24T19:02:29.022Z,93.20
2018-01-24T19:04:56.494Z,92.90
2018-01-24T19:07:23.977Z,93.10
2018-01-24T19:09:51.434Z,93.20
2018-01-24T19:12:18.938Z,93.30
2018-01-24T19:14:46.427Z,93.10
2018-01-24T19:17:13.916Z,93.30
2018-01-24T19:19:41.364Z,93.30
2018-01-24T19:22:08.824Z,93.30
2018-01-24T19:24:36.433Z,93.30
2018-01-24T19:27:03.903Z,93.40
2018-01-24T19:29:32.309Z,93.40
2018-01-24T19:31:59.919Z,93.50
2018-01-24T19:34:27.535Z,93.60
2018-01-24T19:36:55.782Z,93.70
2018-01-24T19:39:23.291Z,93.70
2018-01-24T19:44:31.681Z,93.60
2018-01-24T19:46:59.982Z,93.90
2018-01-24T19:49:27.453Z,93.90
2018-01-24T19:51:54.968Z,93.80
2018-01-24T19:54:23.184Z,94.00
2018-01-24T19:56:50.702Z,94.00
2018-01-24T19:59:18.924Z,94.00
2018-01-24T20:01:46.422Z,94.00
2018-01-24T20:04:13.922Z,94.10
2018-01-24T20:06:41.430Z,94.30
2018-01-24T20:09:08.881Z,94.40
2018-01-24T20:11:36.333Z,94.20
2018-01-24T20:14:03.833Z,94.30
2018-01-24T20:16:32.094Z,94.50
2018-01-24T20:19:00.364Z,94.70
2018-01-24T20:21:27.824Z,94.60
2018-01-24T20:23:56.040Z,95.10
2018-01-24T20:26:23.508Z,95.00
2018-01-24T20:28:51.020Z,95.20
2018-01-24T20:31:19.261Z,94.80
2018-01-24T20:33:46.776Z,94.70
2018-01-24T20:36:14.254Z,94.70
2018-01-24T20:38:41.754Z,94.70
2018-01-24T20:41:09.974Z,94.20
2018-01-24T20:43:37.469Z,94.40
2018-01-24T20:46:04.977Z,94.60
2018-01-24T20:48:32.431Z,94.30
2018-01-24T20:50:59.922Z,94.20
2018-01-24T20:53:27.377Z,94.20
2018-01-24T20:55:54.878Z,94.00
2018-01-24T20:58:23.105Z,93.80
2018-01-24T21:00:50.576Z,93.80
2018-01-24T21:03:18.040Z,93.80
2018-01-24T21:05:45.496Z,93.80
2018-01-24T21:08:12.998Z,93.90
2018-01-24T21:10:40.469Z,93.90
2018-01-24T21:13:08.744Z,94.00
2018-01-24T21:15:36.196Z,93.90
2018-01-24T21:18:03.652Z,93.90
2018-01-24T21:20:31.123Z,94.00
2018-01-24T21:22:58.580Z,94.00
2018-01-24T21:25:26.036Z,94.10
2018-01-24T21:27:53.540Z,94.20
2018-01-24T21:30:21.780Z,94.20
2018-01-24T21:33:01.169Z,94.20
2018-01-24T21:35:41.421Z,94.30
2018-01-24T21:38:09.646Z,94.30
2018-01-24T21:40:37.103Z,94.30
2018-01-24T21:43:04.601Z,94.50
2018-01-24T21:45:32.827Z,94.30
2018-01-24T21:48:00.330Z,94.30
2018-01-24T21:50:28.565Z,94.40
2018-01-24T21:52:56.075Z,94.30
2018-01-24T21:55:24.303Z,94.50
2018-01-24T21:57:52.752Z,94.70
2018-01-24T22:00:20.255Z,94.60
2018-01-24T22:02:47.753Z,94.60
2018-01-24T22:05:15.200Z,94.60
2018-01-24T22:07:43.425Z,94.50
2018-01-24T22:10:10.915Z,94.40
2018-01-24T22:12:38.360Z,94.30
2018-01-24T22:15:05.850Z,94.10
2018-01-24T22:17:34.068Z,94.10
2018-01-24T22:20:03.542Z,94.10
2018-01-24T22:22:31.044Z,94.20
2018-01-24T22:24:58.486Z,94.30
2018-01-24T22:27:26.708Z,93.70
2018-01-24T22:29:54.920Z,93.40
2018-01-24T22:32:22.372Z,93.40
2018-01-24T22:34:50.053Z,93.10
2018-01-24T22:37:17.582Z,92.90
2018-01-24T22:39:45.756Z,92.40
2018-01-24T22:42:13.248Z,92.40
2018-01-24T22:44:40.742Z,92.30
2018-01-24T22:47:08.945Z,92.40
2018-01-24T22:49:36.433Z,92.40
2018-01-24T22:52:03.919Z,92.40
2018-01-24T22:54:32.140Z,92.70
2018-01-24T22:56:59.587Z,92.70
2018-01-24T22:59:27.036Z,92.60
2018-01-24T23:01:54.483Z,92.70
2018-01-24T23:04:21.951Z,92.70
2018-01-24T23:06:49.396Z,92.30
2018-01-24T23:09:16.840Z,92.30
2018-01-24T23:11:45.045Z,92.60
2018-01-24T23:14:12.501Z,92.60
2018-01-24T23:16:39.952Z,92.70
2018-01-24T23:19:07.395Z,92.70
2018-01-24T23:21:34.896Z,92.60
2018-01-24T23:24:02.369Z,92.50
2018-01-24T23:26:29.819Z,92.40
2018-01-24T23:28:57.270Z,92.00
2018-01-24T23:31:24.729Z,91.70
2018-01-24T23:33:52.189Z,91.60
2018-01-24T23:36:19.644Z,91.90
2018-01-24T23:38:47.100Z,91.70
2018-01-24T23:41:14.543Z,91.90
2018-01-24T23:43:41.996Z,92.00
2018-01-24T23:46:09.444Z,91.90
2018-01-24T23:48:36.896Z,92.00
2018-01-24T23:51:04.348Z,92.10
2018-01-24T23:53:31.800Z,92.00
2018-01-24T23:55:59.243Z,92.10
2018-01-24T23:58:26.696Z,92.10
